sensor_id;sensor_type;location;lat;lon;timestamp;P1;P2;P0
46885;PMS5003;32622;48.202;11.326;2024-03-23T00:54:06;19;18;
46885;PMS5003;32622;48.202;11.326;2024-03-23T00:56:08;19;18;
46885;PMS5003;32622;48.202;11.326;2024-03-23T00:58:10;19;18;
46885;PMS5003;32622;48.202;11.326;2024-03-23T01:00:12;20;19;
46885;PMS5003;32622;48.202;11.326;2024-03-23T01:02:15;20;19;
46885;PMS5003;32622;48.202;11.326;2024-03-23T01:04:17;20;19;
46885;PMS5003;32622;48.202;11.326;2024-03-23T01:06:19;21;19;
46885;PMS5003;32622;48.202;11.326;2024-03-23T01:08:22;21;19;
46885;PMS5003;32622;48.202;11.326;2024-03-23T01:10:24;21;19;
46885;PMS5003;32622;48.202;11.326;2024-03-23T01:12:26;21;19;
46885;PMS5003;32622;48.202;11.326;2024-03-23T01:14:28;21;19;
46885;PMS5003;32622;48.202;11.326;2024-03-23T01:16:30;21;19;
46885;PMS5003;32622;48.202;11.326;2024-03-23T01:18:32;21;19;
46885;PMS5003;32622;48.202;11.326;2024-03-23T01:20:35;21;19;
46885;PMS5003;32622;48.202;11.326;2024-03-23T01:22:37;21;19;
46885;PMS5003;32622;48.202;11.326;2024-03-23T01:24:39;22;20;
46885;PMS5003;32622;48.202;11.326;2024-03-23T01:26:41;22;20;
46885;PMS5003;32622;48.202;11.326;2024-03-23T01:28:43;22;20;
46885;PMS5003;32622;48.202;11.326;2024-03-23T01:30:45;22;20;
46885;PMS5003;32622;48.202;11.326;2024-03-23T01:32:47;22;20;
46885;PMS5003;32622;48.202;11.326;2024-03-23T01:34:49;22;20;
46885;PMS5003;32622;48.202;11.326;2024-03-23T01:36:51;22;20;
46885;PMS5003;32622;48.202;11.326;2024-03-23T01:38:54;22;20;
46885;PMS5003;32622;48.202;11.326;2024-03-23T01:40:56;22;20;
46885;PMS5003;32622;48.202;11.326;2024-03-23T01:43:01;22;20;
46885;PMS5003;32622;48.202;11.326;2024-03-23T01:45:07;22;20;
46885;PMS5003;32622;48.202;11.326;2024-03-23T01:47:10;22;20;
46885;PMS5003;32622;48.202;11.326;2024-03-23T01:49:12;22;20;
46885;PMS5003;32622;48.202;11.326;2024-03-23T01:51:15;22;20;
46885;PMS5003;32622;48.202;11.326;2024-03-23T01:53:17;22;20;
46885;PMS5003;32622;48.202;11.326;2024-03-23T01:55:20;21;19;
46885;PMS5003;32622;48.202;11.326;2024-03-23T01:57:22;21;19;
46885;PMS5003;32622;48.202;11.326;2024-03-23T01:59:24;21;19;
46885;PMS5003;32622;48.202;11.326;2024-03-23T02:01:26;21;19;
46885;PMS5003;32622;48.202;11.326;2024-03-23T02:03:28;21;19;
46885;PMS5003;32622;48.202;11.326;2024-03-23T02:05:30;21;19;
46885;PMS5003;32622;48.202;11.326;2024-03-23T02:07:33;21;18;
46885;PMS5003;32622;48.202;11.326;2024-03-23T02:09:35;21;18;
46885;PMS5003;32622;48.202;11.326;2024-03-23T02:11:37;21;18;
46885;PMS5003;32622;48.202;11.326;2024-03-23T02:13:39;20;18;
46885;PMS5003;32622;48.202;11.326;2024-03-23T02:15:41;20;18;
46885;PMS5003;32622;48.202;11.326;2024-03-23T02:17:43;20;18;
46885;PMS5003;32622;48.202;11.326;2024-03-23T02:19:46;19;18;
46885;PMS5003;32622;48.202;11.326;2024-03-23T02:21:48;19;18;
46885;PMS5003;32622;48.202;11.326;2024-03-23T02:23:50;19;18;
46885;PMS5003;32622;48.202;11.326;2024-03-23T02:25:52;19;17;
46885;PMS5003;32622;48.202;11.326;2024-03-23T02:27:55;19;17;
46885;PMS5003;32622;48.202;11.326;2024-03-23T02:29:57;19;17;
46885;PMS5003;32622;48.202;11.326;2024-03-23T02:31:59;21;17;
46885;PMS5003;32622;48.202;11.326;2024-03-23T02:34:01;21;17;
46885;PMS5003;32622;48.202;11.326;2024-03-23T02:36:03;21;17;
46885;PMS5003;32622;48.202;11.326;2024-03-23T02:38:06;20;17;
46885;PMS5003;32622;48.202;11.326;2024-03-23T02:40:08;20;17;
46885;PMS5003;32622;48.202;11.326;2024-03-23T02:42:10;20;17;
46885;PMS5003;32622;48.202;11.326;2024-03-23T02:44:12;20;17;
46885;PMS5003;32622;48.202;11.326;2024-03-23T02:46:15;20;17;
46885;PMS5003;32622;48.202;11.326;2024-03-23T02:48:17;20;17;
46885;PMS5003;32622;48.202;11.326;2024-03-23T02:50:19;21;17;
46885;PMS5003;32622;48.202;11.326;2024-03-23T02:52:21;21;17;
46885;PMS5003;32622;48.202;11.326;2024-03-23T02:54:23;21;17;
46885;PMS5003;32622;48.202;11.326;2024-03-23T02:56:25;21;17;
46885;PMS5003;32622;48.202;11.326;2024-03-23T02:58:27;21;17;
46885;PMS5003;32622;48.202;11.326;2024-03-23T03:00:29;21;17;
46885;PMS5003;32622;48.202;11.326;2024-03-23T03:02:32;22;18;
46885;PMS5003;32622;48.202;11.326;2024-03-23T03:04:34;22;18;
46885;PMS5003;32622;48.202;11.326;2024-03-23T03:06:36;22;18;
46885;PMS5003;32622;48.202;11.326;2024-03-23T03:08:38;21;18;
46885;PMS5003;32622;48.202;11.326;2024-03-23T03:10:40;21;18;
46885;PMS5003;32622;48.202;11.326;2024-03-23T03:12:42;21;18;
46885;PMS5003;32622;48.202;11.326;2024-03-23T03:14:44;21;18;
46885;PMS5003;32622;48.202;11.326;2024-03-23T03:16:46;21;18;
46885;PMS5003;32622;48.202;11.326;2024-03-23T03:18:48;21;18;
46885;PMS5003;32622;48.202;11.326;2024-03-23T03:20:53;22;19;
46885;PMS5003;32622;48.202;11.326;2024-03-23T03:22:56;22;19;
46885;PMS5003;32622;48.202;11.326;2024-03-23T03:24:58;22;19;
46885;PMS5003;32622;48.202;11.326;2024-03-23T03:27:00;22;19;
46885;PMS5003;32622;48.202;11.326;2024-03-23T03:29:02;22;19;
46885;PMS5003;32622;48.202;11.326;2024-03-23T03:31:04;22;19;
46885;PMS5003;32622;48.202;11.326;2024-03-23T03:33:06;23;20;
46885;PMS5003;32622;48.202;11.326;2024-03-23T03:35:08;23;20;
46885;PMS5003;32622;48.202;11.326;2024-03-23T03:37:10;23;20;
46885;PMS5003;32622;48.202;11.326;2024-03-23T03:39:12;23;20;
46885;PMS5003;32622;48.202;11.326;2024-03-23T03:41:15;23;20;
46885;PMS5003;32622;48.202;11.326;2024-03-23T03:43:17;23;20;
46885;PMS5003;32622;48.202;11.326;2024-03-23T03:45:19;24;21;
46885;PMS5003;32622;48.202;11.326;2024-03-23T03:47:21;24;21;
46885;PMS5003;32622;48.202;11.326;2024-03-23T03:49:23;24;21;
46885;PMS5003;32622;48.202;11.326;2024-03-23T03:51:25;22;20;
46885;PMS5003;32622;48.202;11.326;2024-03-23T03:53:27;22;20;
46885;PMS5003;32622;48.202;11.326;2024-03-23T03:55:29;22;20;
46885;PMS5003;32622;48.202;11.326;2024-03-23T03:57:31;22;20;
46885;PMS5003;32622;48.202;11.326;2024-03-23T03:59:33;22;20;
46885;PMS5003;32622;48.202;11.326;2024-03-23T04:01:36;22;20;
46885;PMS5003;32622;48.202;11.326;2024-03-23T04:03:38;22;20;
46885;PMS5003;32622;48.202;11.326;2024-03-23T04:05:40;22;20;
46885;PMS5003;32622;48.202;11.326;2024-03-23T04:07:42;22;20;
46885;PMS5003;32622;48.202;11.326;2024-03-23T04:09:44;22;20;
46885;PMS5003;32622;48.202;11.326;2024-03-23T04:11:47;22;20;
46885;PMS5003;32622;48.202;11.326;2024-03-23T04:13:49;22;20;
46885;PMS5003;32622;48.202;11.326;2024-03-23T04:15:53;21;19;
46885;PMS5003;32622;48.202;11.326;2024-03-23T04:17:55;21;19;
46885;PMS5003;32622;48.202;11.326;2024-03-23T04:19:58;21;19;
46885;PMS5003;32622;48.202;11.326;2024-03-23T04:22:00;22;20;
46885;PMS5003;32622;48.202;11.326;2024-03-23T04:24:02;22;20;
46885;PMS5003;32622;48.202;11.326;2024-03-23T04:26:04;22;20;
46885;PMS5003;32622;48.202;11.326;2024-03-23T04:28:07;22;21;
46885;PMS5003;32622;48.202;11.326;2024-03-23T04:30:09;22;21;
46885;PMS5003;32622;48.202;11.326;2024-03-23T04:32:12;22;21;
46885;PMS5003;32622;48.202;11.326;2024-03-23T04:34:14;20;20;
46885;PMS5003;32622;48.202;11.326;2024-03-23T04:36:17;20;20;
46885;PMS5003;32622;48.202;11.326;2024-03-23T04:38:19;20;20;
46885;PMS5003;32622;48.202;11.326;2024-03-23T04:40:21;20;20;
46885;PMS5003;32622;48.202;11.326;2024-03-23T04:42:23;20;20;
46885;PMS5003;32622;48.202;11.326;2024-03-23T04:44:25;20;20;
46885;PMS5003;32622;48.202;11.326;2024-03-23T04:46:27;21;21;
46885;PMS5003;32622;48.202;11.326;2024-03-23T04:48:29;21;21;
46885;PMS5003;32622;48.202;11.326;2024-03-23T04:50:31;21;21;
46885;PMS5003;32622;48.202;11.326;2024-03-23T04:52:33;22;22;
46885;PMS5003;32622;48.202;11.326;2024-03-23T04:54:35;22;22;
46885;PMS5003;32622;48.202;11.326;2024-03-23T04:56:37;22;22;
46885;PMS5003;32622;48.202;11.326;2024-03-23T04:58:40;21;21;
46885;PMS5003;32622;48.202;11.326;2024-03-23T05:00:42;21;21;
46885;PMS5003;32622;48.202;11.326;2024-03-23T05:02:44;21;21;
46885;PMS5003;32622;48.202;11.326;2024-03-23T05:04:46;22;22;
46885;PMS5003;32622;48.202;11.326;2024-03-23T05:06:48;22;22;
46885;PMS5003;32622;48.202;11.326;2024-03-23T05:08:51;22;22;
46885;PMS5003;32622;48.202;11.326;2024-03-23T05:10:53;22;22;
46885;PMS5003;32622;48.202;11.326;2024-03-23T05:12:55;22;22;
46885;PMS5003;32622;48.202;11.326;2024-03-23T05:14:57;22;22;
46885;PMS5003;32622;48.202;11.326;2024-03-23T05:17:00;23;23;
46885;PMS5003;32622;48.202;11.326;2024-03-23T05:19:02;23;23;
46885;PMS5003;32622;48.202;11.326;2024-03-23T05:21:04;23;23;
46885;PMS5003;32622;48.202;11.326;2024-03-23T05:23:06;22;22;
46885;PMS5003;32622;48.202;11.326;2024-03-23T05:25:08;22;22;
46885;PMS5003;32622;48.202;11.326;2024-03-23T05:27:10;22;22;
46885;PMS5003;32622;48.202;11.326;2024-03-23T05:29:12;22;22;
46885;PMS5003;32622;48.202;11.326;2024-03-23T05:31:22;23;23;
46885;PMS5003;32622;48.202;11.326;2024-03-23T05:33:24;23;23;
46885;PMS5003;32622;48.202;11.326;2024-03-23T05:35:26;24;22;
46885;PMS5003;32622;48.202;11.326;2024-03-23T05:37:28;24;22;
46885;PMS5003;32622;48.202;11.326;2024-03-23T05:39:30;25;23;
46885;PMS5003;32622;48.202;11.326;2024-03-23T05:41:33;25;23;
46885;PMS5003;32622;48.202;11.326;2024-03-23T05:43:35;25;23;
46885;PMS5003;32622;48.202;11.326;2024-03-23T05:45:37;25;23;
46885;PMS5003;32622;48.202;11.326;2024-03-23T05:47:39;26;24;
46885;PMS5003;32622;48.202;11.326;2024-03-23T05:49:41;26;23;
46885;PMS5003;32622;48.202;11.326;2024-03-23T05:51:44;24;21;
46885;PMS5003;32622;48.202;11.326;2024-03-23T05:53:46;25;22;
46885;PMS5003;32622;48.202;11.326;2024-03-23T05:55:48;25;22;
46885;PMS5003;32622;48.202;11.326;2024-03-23T05:57:52;25;22;
46885;PMS5003;32622;48.202;11.326;2024-03-23T05:59:54;23;22;
46885;PMS5003;32622;48.202;11.326;2024-03-23T06:01:56;23;22;
46885;PMS5003;32622;48.202;11.326;2024-03-23T06:03:58;23;22;
46885;PMS5003;32622;48.202;11.326;2024-03-23T06:06:00;22;21;
46885;PMS5003;32622;48.202;11.326;2024-03-23T06:08:03;22;21;
46885;PMS5003;32622;48.202;11.326;2024-03-23T06:10:06;22;21;
46885;PMS5003;32622;48.202;11.326;2024-03-23T06:12:09;22;22;
46885;PMS5003;32622;48.202;11.326;2024-03-23T06:14:11;22;22;
46885;PMS5003;32622;48.202;11.326;2024-03-23T06:16:13;22;22;
46885;PMS5003;32622;48.202;11.326;2024-03-23T06:18:15;21;21;
46885;PMS5003;32622;48.202;11.326;2024-03-23T06:20:17;21;21;
46885;PMS5003;32622;48.202;11.326;2024-03-23T06:22:19;21;21;
46885;PMS5003;32622;48.202;11.326;2024-03-23T06:24:21;21;21;
46885;PMS5003;32622;48.202;11.326;2024-03-23T06:26:23;21;21;
46885;PMS5003;32622;48.202;11.326;2024-03-23T06:28:25;21;21;
46885;PMS5003;32622;48.202;11.326;2024-03-23T06:30:28;20;20;
46885;PMS5003;32622;48.202;11.326;2024-03-23T06:32:30;20;20;
46885;PMS5003;32622;48.202;11.326;2024-03-23T06:34:32;20;20;
46885;PMS5003;32622;48.202;11.326;2024-03-23T06:36:34;20;20;
46885;PMS5003;32622;48.202;11.326;2024-03-23T06:38:36;20;20;
46885;PMS5003;32622;48.202;11.326;2024-03-23T06:40:38;20;20;
46885;PMS5003;32622;48.202;11.326;2024-03-23T06:42:41;21;21;
46885;PMS5003;32622;48.202;11.326;2024-03-23T06:44:43;21;21;
46885;PMS5003;32622;48.202;11.326;2024-03-23T06:46:45;21;21;
46885;PMS5003;32622;48.202;11.326;2024-03-23T06:48:48;21;21;
46885;PMS5003;32622;48.202;11.326;2024-03-23T06:50:54;21;21;
46885;PMS5003;32622;48.202;11.326;2024-03-23T06:52:57;21;21;
46885;PMS5003;32622;48.202;11.326;2024-03-23T06:54:59;21;21;
46885;PMS5003;32622;48.202;11.326;2024-03-23T06:57:01;21;21;
46885;PMS5003;32622;48.202;11.326;2024-03-23T06:59:03;21;21;
46885;PMS5003;32622;48.202;11.326;2024-03-23T07:01:05;22;22;
46885;PMS5003;32622;48.202;11.326;2024-03-23T07:03:08;22;22;
46885;PMS5003;32622;48.202;11.326;2024-03-23T07:05:10;22;22;
46885;PMS5003;32622;48.202;11.326;2024-03-23T07:07:12;23;23;
46885;PMS5003;32622;48.202;11.326;2024-03-23T07:09:14;23;23;
46885;PMS5003;32622;48.202;11.326;2024-03-23T07:11:18;23;23;
46885;PMS5003;32622;48.202;11.326;2024-03-23T07:13:20;23;22;
46885;PMS5003;32622;48.202;11.326;2024-03-23T07:15:23;23;22;
46885;PMS5003;32622;48.202;11.326;2024-03-23T07:17:25;23;22;
46885;PMS5003;32622;48.202;11.326;2024-03-23T07:19:27;23;23;
46885;PMS5003;32622;48.202;11.326;2024-03-23T07:21:29;23;23;
46885;PMS5003;32622;48.202;11.326;2024-03-23T07:23:31;23;23;
46885;PMS5003;32622;48.202;11.326;2024-03-23T07:25:34;24;24;
46885;PMS5003;32622;48.202;11.326;2024-03-23T07:27:36;24;24;
46885;PMS5003;32622;48.202;11.326;2024-03-23T07:29:38;24;24;
46885;PMS5003;32622;48.202;11.326;2024-03-23T07:31:40;25;24;
46885;PMS5003;32622;48.202;11.326;2024-03-23T07:33:43;25;24;
46885;PMS5003;32622;48.202;11.326;2024-03-23T07:35:47;25;24;
46885;PMS5003;32622;48.202;11.326;2024-03-23T07:37:49;26;24;
46885;PMS5003;32622;48.202;11.326;2024-03-23T07:39:52;26;24;
46885;PMS5003;32622;48.202;11.326;2024-03-23T07:41:54;26;24;
46885;PMS5003;32622;48.202;11.326;2024-03-23T07:43:56;26;24;
46885;PMS5003;32622;48.202;11.326;2024-03-23T07:45:58;26;24;
46885;PMS5003;32622;48.202;11.326;2024-03-23T07:48:00;26;24;
46885;PMS5003;32622;48.202;11.326;2024-03-23T07:50:03;25;24;
46885;PMS5003;32622;48.202;11.326;2024-03-23T07:52:05;25;24;
46885;PMS5003;32622;48.202;11.326;2024-03-23T07:54:07;25;24;
46885;PMS5003;32622;48.202;11.326;2024-03-23T07:56:10;24;23;
46885;PMS5003;32622;48.202;11.326;2024-03-23T07:58:12;24;23;
46885;PMS5003;32622;48.202;11.326;2024-03-23T08:00:14;24;23;
46885;PMS5003;32622;48.202;11.326;2024-03-23T08:02:17;24;23;
46885;PMS5003;32622;48.202;11.326;2024-03-23T08:04:19;24;23;
46885;PMS5003;32622;48.202;11.326;2024-03-23T08:06:21;24;23;
46885;PMS5003;32622;48.202;11.326;2024-03-23T08:08:23;24;22;
46885;PMS5003;32622;48.202;11.326;2024-03-23T08:10:26;24;22;
46885;PMS5003;32622;48.202;11.326;2024-03-23T08:12:28;24;22;
46885;PMS5003;32622;48.202;11.326;2024-03-23T08:14:30;23;22;
46885;PMS5003;32622;48.202;11.326;2024-03-23T08:16:33;23;22;
46885;PMS5003;32622;48.202;11.326;2024-03-23T08:18:35;23;22;
46885;PMS5003;32622;48.202;11.326;2024-03-23T08:20:37;22;21;
46885;PMS5003;32622;48.202;11.326;2024-03-23T08:22:39;22;21;
46885;PMS5003;32622;48.202;11.326;2024-03-23T08:24:41;22;21;
46885;PMS5003;32622;48.202;11.326;2024-03-23T08:26:43;21;21;
46885;PMS5003;32622;48.202;11.326;2024-03-23T08:28:45;21;21;
46885;PMS5003;32622;48.202;11.326;2024-03-23T08:30:47;21;21;
46885;PMS5003;32622;48.202;11.326;2024-03-23T08:32:49;21;20;
46885;PMS5003;32622;48.202;11.326;2024-03-23T08:34:52;21;20;
46885;PMS5003;32622;48.202;11.326;2024-03-23T08:36:54;21;20;
46885;PMS5003;32622;48.202;11.326;2024-03-23T08:38:56;19;19;
46885;PMS5003;32622;48.202;11.326;2024-03-23T08:40:59;19;19;
46885;PMS5003;32622;48.202;11.326;2024-03-23T08:43:02;19;19;
46885;PMS5003;32622;48.202;11.326;2024-03-23T08:45:05;19;19;
46885;PMS5003;32622;48.202;11.326;2024-03-23T08:47:07;19;19;
46885;PMS5003;32622;48.202;11.326;2024-03-23T08:49:09;19;19;
46885;PMS5003;32622;48.202;11.326;2024-03-23T08:51:12;19;19;
46885;PMS5003;32622;48.202;11.326;2024-03-23T08:53:15;19;19;
46885;PMS5003;32622;48.202;11.326;2024-03-23T08:55:17;19;19;
46885;PMS5003;32622;48.202;11.326;2024-03-23T08:57:19;20;20;
46885;PMS5003;32622;48.202;11.326;2024-03-23T08:59:22;20;20;
46885;PMS5003;32622;48.202;11.326;2024-03-23T09:01:24;20;20;
46885;PMS5003;32622;48.202;11.326;2024-03-23T09:03:26;20;19;
46885;PMS5003;32622;48.202;11.326;2024-03-23T09:05:28;20;19;
46885;PMS5003;32622;48.202;11.326;2024-03-23T09:07:30;20;19;
46885;PMS5003;32622;48.202;11.326;2024-03-23T09:09:32;20;19;
46885;PMS5003;32622;48.202;11.326;2024-03-23T09:11:35;20;19;
46885;PMS5003;32622;48.202;11.326;2024-03-23T09:13:37;20;19;
46885;PMS5003;32622;48.202;11.326;2024-03-23T09:15:45;21;20;
46885;PMS5003;32622;48.202;11.326;2024-03-23T09:17:48;22;20;
46885;PMS5003;32622;48.202;11.326;2024-03-23T09:19:50;22;21;
46885;PMS5003;32622;48.202;11.326;2024-03-23T09:21:53;22;21;
46885;PMS5003;32622;48.202;11.326;2024-03-23T09:23:55;23;22;
46885;PMS5003;32622;48.202;11.326;2024-03-23T09:25:57;25;22;
46885;PMS5003;32622;48.202;11.326;2024-03-23T09:28:04;25;23;
46885;PMS5003;32622;48.202;11.326;2024-03-23T09:30:07;25;23;
46885;PMS5003;32622;48.202;11.326;2024-03-23T09:32:09;24;23;
46885;PMS5003;32622;48.202;11.326;2024-03-23T09:34:11;25;23;
46885;PMS5003;32622;48.202;11.326;2024-03-23T09:36:13;24;22;
46885;PMS5003;32622;48.202;11.326;2024-03-23T09:38:16;25;24;
46885;PMS5003;32622;48.202;11.326;2024-03-23T09:40:18;24;23;
46885;PMS5003;32622;48.202;11.326;2024-03-23T09:42:20;24;23;
46885;PMS5003;32622;48.202;11.326;2024-03-23T09:44:22;24;23;
46885;PMS5003;32622;48.202;11.326;2024-03-23T09:46:26;24;23;
46885;PMS5003;32622;48.202;11.326;2024-03-23T09:48:28;24;23;
46885;PMS5003;32622;48.202;11.326;2024-03-23T09:50:31;24;23;
46885;PMS5003;32622;48.202;11.326;2024-03-23T09:52:33;24;23;
46885;PMS5003;32622;48.202;11.326;2024-03-23T09:54:35;24;23;
46885;PMS5003;32622;48.202;11.326;2024-03-23T09:56:37;24;23;
46885;PMS5003;32622;48.202;11.326;2024-03-23T09:58:39;22;22;
46885;PMS5003;32622;48.202;11.326;2024-03-23T10:00:42;22;22;
46885;PMS5003;32622;48.202;11.326;2024-03-23T10:02:45;22;22;
46885;PMS5003;32622;48.202;11.326;2024-03-23T10:04:47;23;23;
46885;PMS5003;32622;48.202;11.326;2024-03-23T10:06:49;23;23;
46885;PMS5003;32622;48.202;11.326;2024-03-23T10:08:51;23;23;
46885;PMS5003;32622;48.202;11.326;2024-03-23T10:10:54;24;24;
46885;PMS5003;32622;48.202;11.326;2024-03-23T10:12:56;24;24;
46885;PMS5003;32622;48.202;11.326;2024-03-23T10:14:58;24;24;
46885;PMS5003;32622;48.202;11.326;2024-03-23T10:17:11;24;24;
46885;PMS5003;32622;48.202;11.326;2024-03-23T10:19:14;24;24;
46885;PMS5003;32622;48.202;11.326;2024-03-23T10:21:32;24;24;
46885;PMS5003;32622;48.202;11.326;2024-03-23T10:23:35;24;23;
46885;PMS5003;32622;48.202;11.326;2024-03-23T10:25:38;24;23;
46885;PMS5003;32622;48.202;11.326;2024-03-23T10:27:40;24;23;
46885;PMS5003;32622;48.202;11.326;2024-03-23T10:29:42;24;23;
46885;PMS5003;32622;48.202;11.326;2024-03-23T10:31:44;24;23;
46885;PMS5003;32622;48.202;11.326;2024-03-23T10:33:46;24;23;
46885;PMS5003;32622;48.202;11.326;2024-03-23T10:35:49;23;22;
46885;PMS5003;32622;48.202;11.326;2024-03-23T10:37:52;23;22;
46885;PMS5003;32622;48.202;11.326;2024-03-23T10:39:54;23;22;
46885;PMS5003;32622;48.202;11.326;2024-03-23T10:41:57;22;21;
46885;PMS5003;32622;48.202;11.326;2024-03-23T10:44:01;22;21;
46885;PMS5003;32622;48.202;11.326;2024-03-23T10:46:06;22;21;
46885;PMS5003;32622;48.202;11.326;2024-03-23T10:48:08;22;21;
46885;PMS5003;32622;48.202;11.326;2024-03-23T10:50:10;22;21;
46885;PMS5003;32622;48.202;11.326;2024-03-23T10:52:12;22;21;
46885;PMS5003;32622;48.202;11.326;2024-03-23T10:54:14;23;21;
46885;PMS5003;32622;48.202;11.326;2024-03-23T10:56:16;23;21;
46885;PMS5003;32622;48.202;11.326;2024-03-23T10:58:21;23;21;
46885;PMS5003;32622;48.202;11.326;2024-03-23T11:00:26;24;21;
46885;PMS5003;32622;48.202;11.326;2024-03-23T11:02:28;24;21;
46885;PMS5003;32622;48.202;11.326;2024-03-23T11:04:31;24;21;
46885;PMS5003;32622;48.202;11.326;2024-03-23T11:06:35;22;19;
46885;PMS5003;32622;48.202;11.326;2024-03-23T11:08:38;22;19;
46885;PMS5003;32622;48.202;11.326;2024-03-23T11:10:41;22;19;
46885;PMS5003;32622;48.202;11.326;2024-03-23T11:12:43;22;19;
46885;PMS5003;32622;48.202;11.326;2024-03-23T11:14:45;22;19;
46885;PMS5003;32622;48.202;11.326;2024-03-23T11:16:48;22;19;
46885;PMS5003;32622;48.202;11.326;2024-03-23T11:21:56;22;19;
46885;PMS5003;32622;48.202;11.326;2024-03-23T11:24:12;22;19;
46885;PMS5003;32622;48.202;11.326;2024-03-23T11:26:15;20;19;
46885;PMS5003;32622;48.202;11.326;2024-03-23T11:28:17;20;19;
46885;PMS5003;32622;48.202;11.326;2024-03-23T11:30:20;20;19;
46885;PMS5003;32622;48.202;11.326;2024-03-23T11:32:23;20;19;
46885;PMS5003;32622;48.202;11.326;2024-03-23T11:34:26;20;19;
46885;PMS5003;32622;48.202;11.326;2024-03-23T11:36:28;20;19;
46885;PMS5003;32622;48.202;11.326;2024-03-23T11:38:30;20;18;
46885;PMS5003;32622;48.202;11.326;2024-03-23T11:40:38;20;18;
46885;PMS5003;32622;48.202;11.326;2024-03-23T11:42:42;20;18;
46885;PMS5003;32622;48.202;11.326;2024-03-23T11:44:44;21;19;
46885;PMS5003;32622;48.202;11.326;2024-03-23T11:46:46;21;19;
46885;PMS5003;32622;48.202;11.326;2024-03-23T11:48:49;21;19;
46885;PMS5003;32622;48.202;11.326;2024-03-23T11:50:54;22;20;
46885;PMS5003;32622;48.202;11.326;2024-03-23T11:53:14;22;20;
46885;PMS5003;32622;48.202;11.326;2024-03-23T11:55:17;22;20;
46885;PMS5003;32622;48.202;11.326;2024-03-23T11:57:19;22;21;
46885;PMS5003;32622;48.202;11.326;2024-03-23T11:59:37;22;21;
46885;PMS5003;32622;48.202;11.326;2024-03-23T12:01:40;22;21;
46885;PMS5003;32622;48.202;11.326;2024-03-23T12:03:43;21;21;
46885;PMS5003;32622;48.202;11.326;2024-03-23T12:05:47;21;21;
46885;PMS5003;32622;48.202;11.326;2024-03-23T12:07:50;21;21;
46885;PMS5003;32622;48.202;11.326;2024-03-23T12:10:02;21;21;
46885;PMS5003;32622;48.202;11.326;2024-03-23T12:12:07;21;21;
46885;PMS5003;32622;48.202;11.326;2024-03-23T12:14:10;21;21;
46885;PMS5003;32622;48.202;11.326;2024-03-23T12:16:16;20;20;
46885;PMS5003;32622;48.202;11.326;2024-03-23T12:18:23;20;20;
46885;PMS5003;32622;48.202;11.326;2024-03-23T12:20:25;20;20;
46885;PMS5003;32622;48.202;11.326;2024-03-23T12:22:27;21;21;
46885;PMS5003;32622;48.202;11.326;2024-03-23T12:24:29;21;21;
46885;PMS5003;32622;48.202;11.326;2024-03-23T12:26:32;21;21;
46885;PMS5003;32622;48.202;11.326;2024-03-23T12:28:34;22;22;
46885;PMS5003;32622;48.202;11.326;2024-03-23T12:30:39;22;22;
46885;PMS5003;32622;48.202;11.326;2024-03-23T12:32:41;22;22;
46885;PMS5003;32622;48.202;11.326;2024-03-23T12:34:43;22;22;
46885;PMS5003;32622;48.202;11.326;2024-03-23T12:36:45;22;22;
46885;PMS5003;32622;48.202;11.326;2024-03-23T12:38:47;22;22;
46885;PMS5003;32622;48.202;11.326;2024-03-23T12:40:50;24;23;
46885;PMS5003;32622;48.202;11.326;2024-03-23T12:42:52;24;23;
46885;PMS5003;32622;48.202;11.326;2024-03-23T12:44:55;24;23;
46885;PMS5003;32622;48.202;11.326;2024-03-23T12:46:57;23;22;
46885;PMS5003;32622;48.202;11.326;2024-03-23T12:48:59;23;22;
46885;PMS5003;32622;48.202;11.326;2024-03-23T12:51:01;23;22;
46885;PMS5003;32622;48.202;11.326;2024-03-23T12:53:04;23;22;
46885;PMS5003;32622;48.202;11.326;2024-03-23T12:55:06;23;22;
46885;PMS5003;32622;48.202;11.326;2024-03-23T12:57:08;23;22;
46885;PMS5003;32622;48.202;11.326;2024-03-23T12:59:11;21;20;
46885;PMS5003;32622;48.202;11.326;2024-03-23T13:01:13;21;20;
46885;PMS5003;32622;48.202;11.326;2024-03-23T13:03:15;21;20;
46885;PMS5003;32622;48.202;11.326;2024-03-23T13:05:17;22;20;
46885;PMS5003;32622;48.202;11.326;2024-03-23T13:07:19;22;20;
46885;PMS5003;32622;48.202;11.326;2024-03-23T13:09:23;22;20;
46885;PMS5003;32622;48.202;11.326;2024-03-23T13:11:25;23;22;
46885;PMS5003;32622;48.202;11.326;2024-03-23T13:13:27;23;22;
46885;PMS5003;32622;48.202;11.326;2024-03-23T13:15:29;23;22;
46885;PMS5003;32622;48.202;11.326;2024-03-23T13:17:31;23;21;
46885;PMS5003;32622;48.202;11.326;2024-03-23T13:19:33;21;20;
46885;PMS5003;32622;48.202;11.326;2024-03-23T13:21:35;21;20;
46885;PMS5003;32622;48.202;11.326;2024-03-23T13:23:37;21;20;
46885;PMS5003;32622;48.202;11.326;2024-03-23T13:25:40;19;19;
46885;PMS5003;32622;48.202;11.326;2024-03-23T13:27:42;19;19;
46885;PMS5003;32622;48.202;11.326;2024-03-23T13:29:44;18;18;
46885;PMS5003;32622;48.202;11.326;2024-03-23T13:31:46;20;18;
46885;PMS5003;32622;48.202;11.326;2024-03-23T13:33:48;21;18;
46885;PMS5003;32622;48.202;11.326;2024-03-23T13:35:51;19;17;
46885;PMS5003;32622;48.202;11.326;2024-03-23T13:37:54;22;19;
46885;PMS5003;32622;48.202;11.326;2024-03-23T13:39:56;23;20;
46885;PMS5003;32622;48.202;11.326;2024-03-23T13:41:58;23;20;
46885;PMS5003;32622;48.202;11.326;2024-03-23T13:44:01;23;20;
46885;PMS5003;32622;48.202;11.326;2024-03-23T13:46:03;23;20;
46885;PMS5003;32622;48.202;11.326;2024-03-23T13:48:05;22;19;
46885;PMS5003;32622;48.202;11.326;2024-03-23T13:50:08;22;19;
46885;PMS5003;32622;48.202;11.326;2024-03-23T13:52:10;22;19;
46885;PMS5003;32622;48.202;11.326;2024-03-23T13:54:12;22;19;
46885;PMS5003;32622;48.202;11.326;2024-03-23T13:56:14;22;19;
46885;PMS5003;32622;48.202;11.326;2024-03-23T13:58:16;22;19;
46885;PMS5003;32622;48.202;11.326;2024-03-23T14:00:19;22;19;
46885;PMS5003;32622;48.202;11.326;2024-03-23T14:02:21;22;19;
46885;PMS5003;32622;48.202;11.326;2024-03-23T14:04:23;22;19;
46885;PMS5003;32622;48.202;11.326;2024-03-23T14:06:25;22;19;
46885;PMS5003;32622;48.202;11.326;2024-03-23T14:08:27;23;20;
46885;PMS5003;32622;48.202;11.326;2024-03-23T14:10:29;23;20;
46885;PMS5003;32622;48.202;11.326;2024-03-23T14:12:32;23;21;
46885;PMS5003;32622;48.202;11.326;2024-03-23T14:14:34;23;21;
46885;PMS5003;32622;48.202;11.326;2024-03-23T14:16:36;23;21;